sensor_id;sensor_type;location;lat;lon;timestamp;pressure;altitude;pressure_sealevel;temperature;humidity
30302;BME280;17111;52.130;5.028;2023-11-19T00:01:33;100845.16;;;17.76;56.94
30302;BME280;17111;52.130;5.028;2023-11-19T00:04:00;100845.16;;;17.76;57.14
30302;BME280;17111;52.130;5.028;2023-11-19T00:06:27;100850.38;;;17.78;56.79
30302;BME280;17111;52.130;5.028;2023-11-19T00:08:54;100848.69;;;17.77;56.96
30302;BME280;17111;52.130;5.028;2023-11-19T00:11:21;100847.69;;;17.78;56.99
30302;BME280;17111;52.130;5.028;2023-11-19T00:13:47;100841.50;;;17.78;57.02
30302;BME280;17111;52.130;5.028;2023-11-19T00:16:14;100826.25;;;17.78;56.79
30302;BME280;17111;52.130;5.028;2023-11-19T00:18:42;100825.41;;;17.78;57.21
30302;BME280;17111;52.130;5.028;2023-11-19T00:21:09;100836.13;;;17.78;57.24
30302;BME280;17111;52.130;5.028;2023-11-19T00:23:37;100846.03;;;17.77;57.05
30302;BME280;17111;52.130;5.028;2023-11-19T00:26:04;100839.66;;;17.78;57.14
30302;BME280;17111;52.130;5.028;2023-11-19T00:28:33;100839.66;;;17.78;56.99
30302;BME280;17111;52.130;5.028;2023-11-19T00:31:00;100838.81;;;17.78;57.20
30302;BME280;17111;52.130;5.028;2023-11-19T00:33:27;100836.97;;;17.78;57.16
30302;BME280;17111;52.130;5.028;2023-11-19T00:35:53;100824.56;;;17.77;56.90
30302;BME280;17111;52.130;5.028;2023-11-19T00:38:20;100825.41;;;17.78;56.85
30302;BME280;17111;52.130;5.028;2023-11-19T00:40:47;100823.56;;;17.78;56.91
30302;BME280;17111;52.130;5.028;2023-11-19T00:43:14;100818.19;;;17.78;56.99
30302;BME280;17111;52.130;5.028;2023-11-19T00:45:40;100812.84;;;17.78;57.07
30302;BME280;17111;52.130;5.028;2023-11-19T00:48:07;100800.44;;;17.77;56.75
30302;BME280;17111;52.130;5.028;2023-11-19T00:50:34;100814.53;;;17.79;56.97
30302;BME280;17111;52.130;5.028;2023-11-19T00:53:03;100819.03;;;17.79;56.74
30302;BME280;17111;52.130;5.028;2023-11-19T00:55:30;100817.19;;;17.79;57.08
30302;BME280;17111;52.130;5.028;2023-11-19T00:57:57;100819.03;;;17.79;56.62
30302;BME280;17111;52.130;5.028;2023-11-19T01:00:24;100819.03;;;17.79;56.97
30302;BME280;17111;52.130;5.028;2023-11-19T01:02:53;100816.38;;;17.79;57.04
30302;BME280;17111;52.130;5.028;2023-11-19T01:05:20;100822.72;;;17.78;57.02
30302;BME280;17111;52.130;5.028;2023-11-19T01:07:49;100806.63;;;17.78;56.70
30302;BME280;17111;52.130;5.028;2023-11-19T01:10:16;100803.13;;;17.77;56.80
30302;BME280;17111;52.130;5.028;2023-11-19T01:12:45;100801.41;;;17.76;56.83
30302;BME280;17111;52.130;5.028;2023-11-19T01:15:12;100796.06;;;17.76;56.92
30302;BME280;17111;52.130;5.028;2023-11-19T01:17:39;100791.53;;;17.76;56.94
30302;BME280;17111;52.130;5.028;2023-11-19T01:20:17;100776.44;;;17.75;57.08
30302;BME280;17111;52.130;5.028;2023-11-19T01:22:43;100783.47;;;17.76;56.69
30302;BME280;17111;52.130;5.028;2023-11-19T01:25:11;100779.13;;;17.75;57.19
30302;BME280;17111;52.130;5.028;2023-11-19T01:27:37;100786.34;;;17.75;57.41
30302;BME280;17111;52.130;5.028;2023-11-19T01:30:05;100784.50;;;17.75;57.14
30302;BME280;17111;52.130;5.028;2023-11-19T01:32:35;100783.47;;;17.76;57.35
30302;BME280;17111;52.130;5.028;2023-11-19T01:35:03;100778.13;;;17.76;57.24
30302;BME280;17111;52.130;5.028;2023-11-19T01:37:30;100781.81;;;17.75;57.04
30302;BME280;17111;52.130;5.028;2023-11-19T01:39:58;100789.84;;;17.75;57.22
30302;BME280;17111;52.130;5.028;2023-11-19T01:42:25;100795.22;;;17.75;57.12
30302;BME280;17111;52.130;5.028;2023-11-19T01:44:58;100783.78;;;17.73;57.46
30302;BME280;17111;52.130;5.028;2023-11-19T01:47:26;100788.16;;;17.74;57.08
30302;BME280;17111;52.130;5.028;2023-11-19T01:49:53;100786.47;;;17.73;57.13
30302;BME280;17111;52.130;5.028;2023-11-19T01:52:20;100788.31;;;17.73;57.49
30302;BME280;17111;52.130;5.028;2023-11-19T01:54:47;100797.31;;;17.72;57.57
30302;BME280;17111;52.130;5.028;2023-11-19T01:57:14;100796.47;;;17.71;57.17
30302;BME280;17111;52.130;5.028;2023-11-19T01:59:42;100798.31;;;17.71;57.33
30302;BME280;17111;52.130;5.028;2023-11-19T02:02:09;100789.44;;;17.70;57.06
30302;BME280;17111;52.130;5.028;2023-11-19T02:04:36;100785.09;;;17.69;57.53
30302;BME280;17111;52.130;5.028;2023-11-19T02:07:05;100778.88;;;17.69;57.63
30302;BME280;17111;52.130;5.028;2023-11-19T02:09:31;100774.38;;;17.69;57.43
30302;BME280;17111;52.130;5.028;2023-11-19T02:11:58;100786.94;;;17.69;57.26
30302;BME280;17111;52.130;5.028;2023-11-19T02:14:25;100785.22;;;17.68;57.30
30302;BME280;17111;52.130;5.028;2023-11-19T02:16:52;100789.75;;;17.67;57.31
30302;BME280;17111;52.130;5.028;2023-11-19T02:19:20;100803.31;;;17.66;57.53
30302;BME280;17111;52.130;5.028;2023-11-19T02:21:46;100812.34;;;17.65;57.37
30302;BME280;17111;52.130;5.028;2023-11-19T02:24:16;100803.44;;;17.64;57.42
30302;BME280;17111;52.130;5.028;2023-11-19T02:27:08;100804.44;;;17.63;57.65
30302;BME280;17111;52.130;5.028;2023-11-19T02:29:36;100811.47;;;17.64;57.62
30302;BME280;17111;52.130;5.028;2023-11-19T02:32:03;100814.16;;;17.64;57.59
30302;BME280;17111;52.130;5.028;2023-11-19T02:34:30;100815.03;;;17.65;57.72
30302;BME280;17111;52.130;5.028;2023-11-19T02:36:57;100804.31;;;17.65;57.66
30302;BME280;17111;52.130;5.028;2023-11-19T02:39:24;100794.56;;;17.64;57.81
30302;BME280;17111;52.130;5.028;2023-11-19T02:41:50;100797.41;;;17.62;57.44
30302;BME280;17111;52.130;5.028;2023-11-19T02:44:19;100784.84;;;17.63;57.43
30302;BME280;17111;52.130;5.028;2023-11-19T02:46:45;100792.03;;;17.62;57.66
30302;BME280;17111;52.130;5.028;2023-11-19T02:49:14;100780.47;;;17.62;57.59
30302;BME280;17111;52.130;5.028;2023-11-19T02:51:42;100789.50;;;17.61;57.82
30302;BME280;17111;52.130;5.028;2023-11-19T02:54:08;100788.66;;;17.60;57.28
30302;BME280;17111;52.130;5.028;2023-11-19T02:56:36;100791.34;;;17.60;57.54
30302;BME280;17111;52.130;5.028;2023-11-19T02:59:05;100790.50;;;17.60;57.79
30302;BME280;17111;52.130;5.028;2023-11-19T03:01:41;100772.75;;;17.59;57.54
30302;BME280;17111;52.130;5.028;2023-11-19T03:04:10;100790.66;;;17.58;57.73
30302;BME280;17111;52.130;5.028;2023-11-19T03:06:39;100782.63;;;17.58;57.68
30302;BME280;17111;52.130;5.028;2023-11-19T03:09:05;100797.03;;;17.57;57.73
30302;BME280;17111;52.130;5.028;2023-11-19T03:11:37;100789.00;;;17.57;57.46
30302;BME280;17111;52.130;5.028;2023-11-19T03:14:03;100802.38;;;17.57;57.81
30302;BME280;17111;52.130;5.028;2023-11-19T03:16:30;100788.13;;;17.57;57.78
30302;BME280;17111;52.130;5.028;2023-11-19T03:18:57;100794.47;;;17.56;57.91
30302;BME280;17111;52.130;5.028;2023-11-19T03:21:30;100799.00;;;17.55;57.59
30302;BME280;17111;52.130;5.028;2023-11-19T03:23:58;100785.59;;;17.55;57.47
30302;BME280;17111;52.130;5.028;2023-11-19T03:26:27;100784.75;;;17.55;58.16
30302;BME280;17111;52.130;5.028;2023-11-19T03:28:53;100783.94;;;17.54;57.75
30302;BME280;17111;52.130;5.028;2023-11-19T03:31:20;100777.72;;;17.54;57.74
30302;BME280;17111;52.130;5.028;2023-11-19T03:33:47;100768.13;;;17.51;57.97
30302;BME280;17111;52.130;5.028;2023-11-19T03:36:13;100752.91;;;17.51;57.75
30302;BME280;17111;52.130;5.028;2023-11-19T03:38:40;100752.06;;;17.51;57.87
30302;BME280;17111;52.130;5.028;2023-11-19T03:41:12;100760.25;;;17.49;57.75
30302;BME280;17111;52.130;5.028;2023-11-19T03:43:40;100776.34;;;17.49;57.52
30302;BME280;17111;52.130;5.028;2023-11-19T03:46:19;100773.78;;;17.48;58.04
30302;BME280;17111;52.130;5.028;2023-11-19T03:48:47;100785.34;;;17.48;57.94
30302;BME280;17111;52.130;5.028;2023-11-19T03:51:14;100789.88;;;17.48;58.11
30302;BME280;17111;52.130;5.028;2023-11-19T03:53:45;100789.88;;;17.48;57.89
30302;BME280;17111;52.130;5.028;2023-11-19T03:56:12;100792.56;;;17.48;58.03
30302;BME280;17111;52.130;5.028;2023-11-19T03:58:39;100782.84;;;17.47;57.71
30302;BME280;17111;52.130;5.028;2023-11-19T04:01:06;100781.84;;;17.48;57.56
30302;BME280;17111;52.130;5.028;2023-11-19T04:03:37;100791.72;;;17.47;57.64
30302;BME280;17111;52.130;5.028;2023-11-19T04:06:03;100790.88;;;17.47;57.90
30302;BME280;17111;52.130;5.028;2023-11-19T04:08:31;100794.56;;;17.46;57.94
30302;BME280;17111;52.130;5.028;2023-11-19T04:10:57;100795.56;;;17.45;57.89
30302;BME280;17111;52.130;5.028;2023-11-19T04:13:24;100808.78;;;17.46;57.99
30302;BME280;17111;52.130;5.028;2023-11-19T04:15:50;100810.63;;;17.46;58.13
30302;BME280;17111;52.130;5.028;2023-11-19T04:18:17;100817.84;;;17.45;57.88
30302;BME280;17111;52.130;5.028;2023-11-19T04:20:43;100821.47;;;17.44;58.07
30302;BME280;17111;52.130;5.028;2023-11-19T04:23:10;100816.13;;;17.44;57.93
30302;BME280;17111;52.130;5.028;2023-11-19T04:25:37;100817.00;;;17.45;58.00
30302;BME280;17111;52.130;5.028;2023-11-19T04:28:04;100814.44;;;17.43;58.17
30302;BME280;17111;52.130;5.028;2023-11-19T04:30:31;100816.13;;;17.44;57.82
30302;BME280;17111;52.130;5.028;2023-11-19T04:33:01;100808.97;;;17.45;57.84
30302;BME280;17111;52.130;5.028;2023-11-19T04:35:28;100803.72;;;17.43;58.48
30302;BME280;17111;52.130;5.028;2023-11-19T04:37:55;100810.94;;;17.43;57.98
30302;BME280;17111;52.130;5.028;2023-11-19T04:40:23;100818.13;;;17.42;58.20
30302;BME280;17111;52.130;5.028;2023-11-19T04:42:50;100817.13;;;17.43;58.32
30302;BME280;17111;52.130;5.028;2023-11-19T04:45:17;100811.94;;;17.42;58.25
30302;BME280;17111;52.130;5.028;2023-11-19T04:47:43;100805.72;;;17.41;57.76
30302;BME280;17111;52.130;5.028;2023-11-19T04:50:10;100790.63;;;17.40;58.08
30302;BME280;17111;52.130;5.028;2023-11-19T04:52:38;100790.63;;;17.40;58.20
30302;BME280;17111;52.130;5.028;2023-11-19T04:55:12;100794.31;;;17.39;58.09
30302;BME280;17111;52.130;5.028;2023-11-19T04:57:40;100799.53;;;17.41;58.40
30302;BME280;17111;52.130;5.028;2023-11-19T05:00:07;100791.63;;;17.39;58.06
30302;BME280;17111;52.130;5.028;2023-11-19T05:02:37;100812.22;;;17.39;57.80
30302;BME280;17111;52.130;5.028;2023-11-19T05:05:04;100810.53;;;17.38;58.08
30302;BME280;17111;52.130;5.028;2023-11-19T05:07:31;100811.38;;;17.38;58.06
30302;BME280;17111;52.130;5.028;2023-11-19T05:09:58;100816.75;;;17.38;57.93
30302;BME280;17111;52.130;5.028;2023-11-19T05:12:24;100808.88;;;17.37;58.14
30302;BME280;17111;52.130;5.028;2023-11-19T05:14:51;100811.53;;;17.37;57.98
30302;BME280;17111;52.130;5.028;2023-11-19T05:17:18;100813.22;;;17.38;58.27
30302;BME280;17111;52.130;5.028;2023-11-19T05:19:46;100811.53;;;17.37;57.75
30302;BME280;17111;52.130;5.028;2023-11-19T05:22:12;100809.84;;;17.36;57.86
30302;BME280;17111;52.130;5.028;2023-11-19T05:24:39;100809.00;;;17.35;58.00
30302;BME280;17111;52.130;5.028;2023-11-19T05:27:07;100809.84;;;17.36;58.23
30302;BME280;17111;52.130;5.028;2023-11-19T05:29:34;100815.19;;;17.36;58.04
30302;BME280;17111;52.130;5.028;2023-11-19T05:32:00;100810.00;;;17.34;58.38
30302;BME280;17111;52.130;5.028;2023-11-19T05:34:27;100812.69;;;17.34;58.08
30302;BME280;17111;52.130;5.028;2023-11-19T05:36:54;100817.03;;;17.35;58.26
30302;BME280;17111;52.130;5.028;2023-11-19T05:39:21;100826.06;;;17.34;58.29
30302;BME280;17111;52.130;5.028;2023-11-19T05:41:48;100816.19;;;17.35;58.37
30302;BME280;17111;52.130;5.028;2023-11-19T05:44:14;100819.72;;;17.35;57.93
30302;BME280;17111;52.130;5.028;2023-11-19T05:46:41;100827.06;;;17.33;58.49
30302;BME280;17111;52.130;5.028;2023-11-19T05:49:10;100827.91;;;17.34;58.21
30302;BME280;17111;52.130;5.028;2023-11-19T05:51:38;100826.22;;;17.33;58.39
30302;BME280;17111;52.130;5.028;2023-11-19T05:54:08;100811.00;;;17.33;58.39
30302;BME280;17111;52.130;5.028;2023-11-19T05:56:36;100812.84;;;17.33;58.27
30302;BME280;17111;52.130;5.028;2023-11-19T05:59:03;100817.31;;;17.32;58.13
30302;BME280;17111;52.130;5.028;2023-11-19T06:01:34;100825.34;;;17.32;58.23
30302;BME280;17111;52.130;5.028;2023-11-19T06:04:01;100810.28;;;17.31;58.28
30302;BME280;17111;52.130;5.028;2023-11-19T06:06:28;100806.59;;;17.32;58.49
30302;BME280;17111;52.130;5.028;2023-11-19T06:08:55;100808.63;;;17.30;58.63
30302;BME280;17111;52.130;5.028;2023-11-19T06:11:21;100798.72;;;17.31;58.70
30302;BME280;17111;52.130;5.028;2023-11-19T06:13:48;100809.44;;;17.31;58.58
30302;BME280;17111;52.130;5.028;2023-11-19T06:16:17;100801.41;;;17.31;58.14
30302;BME280;17111;52.130;5.028;2023-11-19T06:18:44;100801.56;;;17.29;58.18
30302;BME280;17111;52.130;5.028;2023-11-19T06:21:12;100807.78;;;17.30;58.10
30302;BME280;17111;52.130;5.028;2023-11-19T06:23:38;100807.06;;;17.27;58.44
30302;BME280;17111;52.130;5.028;2023-11-19T06:26:05;100814.09;;;17.28;58.43
30302;BME280;17111;52.130;5.028;2023-11-19T06:28:32;100823.97;;;17.28;58.31
30302;BME280;17111;52.130;5.028;2023-11-19T06:30:58;100815.09;;;17.27;58.10
30302;BME280;17111;52.130;5.028;2023-11-19T06:33:25;100810.75;;;17.26;58.40
30302;BME280;17111;52.130;5.028;2023-11-19T06:35:52;100820.47;;;17.27;58.48
30302;BME280;17111;52.130;5.028;2023-11-19T06:38:19;100824.13;;;17.26;58.48
30302;BME280;17111;52.130;5.028;2023-11-19T06:40:45;100820.47;;;17.27;58.21
30302;BME280;17111;52.130;5.028;2023-11-19T06:43:12;100834.00;;;17.26;58.00
30302;BME280;17111;52.130;5.028;2023-11-19T06:45:38;100829.50;;;17.26;58.44
30302;BME280;17111;52.130;5.028;2023-11-19T06:48:05;100822.47;;;17.25;58.25
30302;BME280;17111;52.130;5.028;2023-11-19T06:50:32;100823.28;;;17.26;58.69
30302;BME280;17111;52.130;5.028;2023-11-19T06:52:59;100826.97;;;17.25;58.09
30302;BME280;17111;52.130;5.028;2023-11-19T06:55:26;100836.81;;;17.24;58.19
30302;BME280;17111;52.130;5.028;2023-11-19T06:57:53;100838.53;;;17.25;58.65
30302;BME280;17111;52.130;5.028;2023-11-19T07:00:20;100837.69;;;17.25;58.06
30302;BME280;17111;52.130;5.028;2023-11-19T07:02:46;100836.81;;;17.24;58.39
30302;BME280;17111;52.130;5.028;2023-11-19T07:05:13;100840.38;;;17.25;58.47
30302;BME280;17111;52.130;5.028;2023-11-19T07:07:40;100837.69;;;17.25;58.16
30302;BME280;17111;52.130;5.028;2023-11-19T07:10:07;100833.31;;;17.24;58.37
30302;BME280;17111;52.130;5.028;2023-11-19T07:12:36;100851.94;;;17.25;58.07
30302;BME280;17111;52.130;5.028;2023-11-19T07:15:03;100845.84;;;17.23;58.60
30302;BME280;17111;52.130;5.028;2023-11-19T07:17:30;100844.84;;;17.24;58.19
30302;BME280;17111;52.130;5.028;2023-11-19T07:19:57;100847.53;;;17.24;58.55
30302;BME280;17111;52.130;5.028;2023-11-19T07:22:26;100854.72;;;17.24;58.10
30302;BME280;17111;52.130;5.028;2023-11-19T07:24:56;100849.25;;;17.25;58.48
30302;BME280;17111;52.130;5.028;2023-11-19T07:27:22;100859.13;;;17.25;58.19
30302;BME280;17111;52.130;5.028;2023-11-19T07:29:50;100857.41;;;17.24;58.32
30302;BME280;17111;52.130;5.028;2023-11-19T07:32:17;100855.44;;;17.26;58.40
30302;BME280;17111;52.130;5.028;2023-11-19T07:34:44;100856.44;;;17.25;58.24
30302;BME280;17111;52.130;5.028;2023-11-19T07:37:11;100869.69;;;17.26;58.15
30302;BME280;17111;52.130;5.028;2023-11-19T07:39:38;100860.94;;;17.24;58.59
30302;BME280;17111;52.130;5.028;2023-11-19T07:42:07;100866.16;;;17.26;57.98
30302;BME280;17111;52.130;5.028;2023-11-19T07:44:35;100859.97;;;17.25;57.75
30302;BME280;17111;52.130;5.028;2023-11-19T07:47:03;100865.31;;;17.25;58.12
30302;BME280;17111;52.130;5.028;2023-11-19T07:49:30;100863.47;;;17.26;58.19
30302;BME280;17111;52.130;5.028;2023-11-19T07:51:57;100858.78;;;17.28;58.05
30302;BME280;17111;52.130;5.028;2023-11-19T07:54:24;100856.97;;;17.28;58.08
30302;BME280;17111;52.130;5.028;2023-11-19T07:56:50;100860.34;;;17.31;57.94
30302;BME280;17111;52.130;5.028;2023-11-19T07:59:17;100863.03;;;17.31;57.63
30302;BME280;17111;52.130;5.028;2023-11-19T08:01:44;100852.31;;;17.31;58.21
30302;BME280;17111;52.130;5.028;2023-11-19T08:04:11;100863.88;;;17.31;57.97
30302;BME280;17111;52.130;5.028;2023-11-19T08:06:38;100861.06;;;17.33;57.73
30302;BME280;17111;52.130;5.028;2023-11-19T08:09:04;100853.16;;;17.31;57.80
30302;BME280;17111;52.130;5.028;2023-11-19T08:11:32;100862.88;;;17.32;57.72
30302;BME280;17111;52.130;5.028;2023-11-19T08:13:58;100861.91;;;17.33;57.99
30302;BME280;17111;52.130;5.028;2023-11-19T08:16:25;100856.38;;;17.35;57.56
30302;BME280;17111;52.130;5.028;2023-11-19T08:18:51;100855.78;;;17.41;58.01
30302;BME280;17111;52.130;5.028;2023-11-19T08:21:18;100861.09;;;17.50;57.55
30302;BME280;17111;52.130;5.028;2023-11-19T08:23:45;100869.78;;;17.62;57.46
30302;BME280;17111;52.130;5.028;2023-11-19T08:26:11;100881.00;;;17.75;57.47
30302;BME280;17111;52.130;5.028;2023-11-19T08:28:38;100866.38;;;17.88;57.08
30302;BME280;17111;52.130;5.028;2023-11-19T08:31:05;100872.22;;;18.01;56.73
30302;BME280;17111;52.130;5.028;2023-11-19T08:33:32;100871.97;;;18.12;56.63
30302;BME280;17111;52.130;5.028;2023-11-19T08:35:59;100877.97;;;18.24;56.04
30302;BME280;17111;52.130;5.028;2023-11-19T08:38:25;100880.41;;;18.35;55.83
30302;BME280;17111;52.130;5.028;2023-11-19T08:40:55;100878.50;;;18.45;55.71
30302;BME280;17111;52.130;5.028;2023-11-19T08:43:27;100873.03;;;18.55;55.44
30302;BME280;17111;52.130;5.028;2023-11-19T08:45:54;100879.28;;;18.64;55.11
30302;BME280;17111;52.130;5.028;2023-11-19T08:48:21;100876.28;;;18.67;55.18
30302;BME280;17111;52.130;5.028;2023-11-19T08:50:47;100877.53;;;18.72;55.44
30302;BME280;17111;52.130;5.028;2023-11-19T08:53:14;100873.88;;;18.73;55.24
30302;BME280;17111;52.130;5.028;2023-11-19T08:55:41;100880.06;;;18.74;54.96
30302;BME280;17111;52.130;5.028;2023-11-19T08:58:08;100880.91;;;18.74;54.99
30302;BME280;17111;52.130;5.028;2023-11-19T09:00:35;100879.25;;;18.73;55.07
30302;BME280;17111;52.130;5.028;2023-11-19T09:03:02;100875.84;;;18.71;54.54
30302;BME280;17111;52.130;5.028;2023-11-19T09:05:29;100877.69;;;18.71;55.08
30302;BME280;17111;52.130;5.028;2023-11-19T09:07:55;100878.81;;;18.68;54.96
30302;BME280;17111;52.130;5.028;2023-11-19T09:10:24;100870.94;;;18.67;55.03
30302;BME280;17111;52.130;5.028;2023-11-19T09:12:51;100868.25;;;18.67;55.43
30302;BME280;17111;52.130;5.028;2023-11-19T09:15:17;100868.25;;;18.67;56.10
30302;BME280;17111;52.130;5.028;2023-11-19T09:17:44;100863.88;;;18.66;55.70
30302;BME280;17111;52.130;5.028;2023-11-19T09:20:12;100875.47;;;18.66;56.10
30302;BME280;17111;52.130;5.028;2023-11-19T09:22:42;100866.88;;;18.63;56.01
30302;BME280;17111;52.130;5.028;2023-11-19T09:25:08;100862.50;;;18.62;56.01
30302;BME280;17111;52.130;5.028;2023-11-19T09:27:35;100868.19;;;18.59;56.10
30302;BME280;17111;52.130;5.028;2023-11-19T09:30:02;100871.00;;;18.57;55.90
30302;BME280;17111;52.130;5.028;2023-11-19T09:32:30;100874.69;;;18.56;56.05
30302;BME280;17111;52.130;5.028;2023-11-19T09:34:57;100875.88;;;18.54;56.03
30302;BME280;17111;52.130;5.028;2023-11-19T09:37:23;100876.84;;;18.53;56.04
30302;BME280;17111;52.130;5.028;2023-11-19T09:39:50;100879.69;;;18.51;56.11
30302;BME280;17111;52.130;5.028;2023-11-19T09:42:17;100864.75;;;18.48;56.20
30302;BME280;17111;52.130;5.028;2023-11-19T09:44:44;100856.84;;;18.47;55.67
30302;BME280;17111;52.130;5.028;2023-11-19T09:47:14;100859.53;;;18.47;55.89
30302;BME280;17111;52.130;5.028;2023-11-19T09:49:41;100862.22;;;18.47;56.31
30302;BME280;17111;52.130;5.028;2023-11-19T09:52:08;100858.69;;;18.46;55.66
30302;BME280;17111;52.130;5.028;2023-11-19T09:54:34;100865.91;;;18.46;55.78
30302;BME280;17111;52.130;5.028;2023-11-19T09:57:02;100871.41;;;18.44;55.80
30302;BME280;17111;52.130;5.028;2023-11-19T09:59:33;100860.69;;;18.44;55.57
30302;BME280;17111;52.130;5.028;2023-11-19T10:02:00;100859.84;;;18.44;55.64
30302;BME280;17111;52.130;5.028;2023-11-19T10:04:29;100860.69;;;18.44;55.60
30302;BME280;17111;52.130;5.028;2023-11-19T10:06:56;100858.84;;;18.45;55.66
30302;BME280;17111;52.130;5.028;2023-11-19T10:09:23;100855.19;;;18.46;55.43
30302;BME280;17111;52.130;5.028;2023-11-19T10:11:50;100854.16;;;18.47;55.92
30302;BME280;17111;52.130;5.028;2023-11-19T10:14:21;100851.31;;;18.48;55.68
30302;BME280;17111;52.130;5.028;2023-11-19T10:16:49;100848.50;;;18.50;55.56
30302;BME280;17111;52.130;5.028;2023-11-19T10:19:19;100850.19;;;18.51;55.48
30302;BME280;17111;52.130;5.028;2023-11-19T10:21:49;100850.84;;;18.53;55.32
30302;BME280;17111;52.130;5.028;2023-11-19T10:24:16;100844.50;;;18.54;55.69
30302;BME280;17111;52.130;5.028;2023-11-19T10:26:45;100841.66;;;18.56;55.97
30302;BME280;17111;52.130;5.028;2023-11-19T10:29:15;100843.31;;;18.57;55.47
30302;BME280;17111;52.130;5.028;2023-11-19T10:31:56;100837.13;;;18.56;55.76
30302;BME280;17111;52.130;5.028;2023-11-19T10:34:27;100840.34;;;18.60;55.51
30302;BME280;17111;52.130;5.028;2023-11-19T10:36:53;100841.34;;;18.59;55.12
30302;BME280;17111;52.130;5.028;2023-11-19T10:39:20;100837.66;;;18.60;55.62
30302;BME280;17111;52.130;5.028;2023-11-19T10:41:50;100844.69;;;18.61;55.85
30302;BME280;17111;52.130;5.028;2023-11-19T10:44:32;100842.84;;;18.61;55.88
30302;BME280;17111;52.130;5.028;2023-11-19T10:47:00;100841.88;;;18.62;55.41
30302;BME280;17111;52.130;5.028;2023-11-19T10:49:26;100836.34;;;18.64;55.70
30302;BME280;17111;52.130;5.028;2023-11-19T10:51:55;100835.31;;;18.65;55.40
30302;BME280;17111;52.130;5.028;2023-11-19T10:54:24;100838.00;;;18.65;55.45
30302;BME280;17111;52.130;5.028;2023-11-19T10:56:55;100843.25;;;18.66;55.75
30302;BME280;17111;52.130;5.028;2023-11-19T10:59:28;100841.41;;;18.67;55.55
30302;BME280;17111;52.130;5.028;2023-11-19T11:02:02;100851.13;;;18.68;56.03
30302;BME280;17111;52.130;5.028;2023-11-19T11:04:31;100845.75;;;18.68;55.24
30302;BME280;17111;52.130;5.028;2023-11-19T11:07:00;100846.75;;;18.67;55.12
30302;BME280;17111;52.130;5.028;2023-11-19T11:09:29;100846.59;;;18.68;55.45
30302;BME280;17111;52.130;5.028;2023-11-19T11:11:57;100849.28;;;18.68;55.73
30302;BME280;17111;52.130;5.028;2023-11-19T11:14:26;100851.97;;;18.68;55.52
30302;BME280;17111;52.130;5.028;2023-11-19T11:16:53;100852.69;;;18.70;55.54
30302;BME280;17111;52.130;5.028;2023-11-19T11:19:23;100840.25;;;18.69;55.47
30302;BME280;17111;52.130;5.028;2023-11-19T11:21:52;100841.97;;;18.70;55.73
30302;BME280;17111;52.130;5.028;2023-11-19T11:32:35;100838.97;;;18.73;55.66
30302;BME280;17111;52.130;5.028;2023-11-19T11:37:44;100833.59;;;18.73;55.74
30302;BME280;17111;52.130;5.028;2023-11-19T11:40:17;100822.84;;;18.73;55.21
30302;BME280;17111;52.130;5.028;2023-11-19T11:42:45;100819.16;;;18.74;55.74
30302;BME280;17111;52.130;5.028;2023-11-19T11:45:13;100821.84;;;18.74;55.33
30302;BME280;17111;52.130;5.028;2023-11-19T11:50:28;100814.94;;;18.72;55.07
30302;BME280;17111;52.130;5.028;2023-11-19T11:55:37;100808.03;;;18.69;54.50
30302;BME280;17111;52.130;5.028;2023-11-19T11:58:05;100799.97;;;18.69;54.77
30302;BME280;17111;52.130;5.028;2023-11-19T12:00:36;100793.75;;;18.69;54.60
30302;BME280;17111;52.130;5.028;2023-11-19T12:03:08;100793.75;;;18.69;54.47
30302;BME280;17111;52.130;5.028;2023-11-19T12:05:44;100800.13;;;18.68;54.65
30302;BME280;17111;52.130;5.028;2023-11-19T12:08:15;100793.91;;;18.67;54.62
30302;BME280;17111;52.130;5.028;2023-11-19T12:10:51;100809.00;;;18.68;55.20
30302;BME280;17111;52.130;5.028;2023-11-19T12:13:19;100791.06;;;18.69;54.83
30302;BME280;17111;52.130;5.028;2023-11-19T12:18:26;100811.69;;;18.68;54.31
30302;BME280;17111;52.130;5.028;2023-11-19T12:20:54;100807.34;;;18.67;54.60
30302;BME280;17111;52.130;5.028;2023-11-19T12:23:22;100798.44;;;18.67;54.43
30302;BME280;17111;52.130;5.028;2023-11-19T12:25:49;100803.81;;;18.67;55.03
30302;BME280;17111;52.130;5.028;2023-11-19T12:28:16;100815.22;;;18.69;54.55
30302;BME280;17111;52.130;5.028;2023-11-19T12:30:43;100805.47;;;18.68;54.76
30302;BME280;17111;52.130;5.028;2023-11-19T12:33:11;100801.13;;;18.67;54.77
30302;BME280;17111;52.130;5.028;2023-11-19T12:35:42;100797.59;;;18.66;54.63
30302;BME280;17111;52.130;5.028;2023-11-19T12:38:19;100819.06;;;18.66;55.04
30302;BME280;17111;52.130;5.028;2023-11-19T12:40:48;100807.63;;;18.64;54.98
30302;BME280;17111;52.130;5.028;2023-11-19T12:43:28;100812.34;;;18.62;55.18
30302;BME280;17111;52.130;5.028;2023-11-19T12:45:55;100812.66;;;18.59;54.85
30302;BME280;17111;52.130;5.028;2023-11-19T12:48:21;100811.13;;;18.57;54.90
30302;BME280;17111;52.130;5.028;2023-11-19T12:53:19;100808.25;;;18.50;55.06
30302;BME280;17111;52.130;5.028;2023-11-19T12:55:45;100816.59;;;18.47;55.20
30302;BME280;17111;52.130;5.028;2023-11-19T12:58:31;100815.75;;;18.46;55.78
30302;BME280;17111;52.130;5.028;2023-11-19T13:01:03;100810.75;;;18.52;55.23
30302;BME280;17111;52.130;5.028;2023-11-19T13:03:34;100807.44;;;18.58;55.21
30302;BME280;17111;52.130;5.028;2023-11-19T13:06:03;100808.03;;;18.69;55.65
30302;BME280;17111;52.130;5.028;2023-11-19T13:08:44;100801.03;;;18.77;55.30
30302;BME280;17111;52.130;5.028;2023-11-19T13:11:15;100801.91;;;18.85;55.13
30302;BME280;17111;52.130;5.028;2023-11-19T13:14:01;100797.44;;;18.94;55.35
30302;BME280;17111;52.130;5.028;2023-11-19T13:16:30;100802.16;;;19.00;55.51